sensor_id;sensor_type;location;lat;lon;timestamp;pressure;altitude;pressure_sealevel;temperature;humidity
75221;BME280;63802;53.232;6.570;2022-10-23T00:00:10;101560.59;;;11.16;94.78
75221;BME280;63802;53.232;6.570;2022-10-23T00:02:35;101562.25;;;11.05;94.72
75221;BME280;63802;53.232;6.570;2022-10-23T00:05:01;101554.31;;;11.00;94.71
75221;BME280;63802;53.232;6.570;2022-10-23T00:07:26;101556.72;;;11.01;94.73
75221;BME280;63802;53.232;6.570;2022-10-23T00:09:52;101560.38;;;10.93;94.66
75221;BME280;63802;53.232;6.570;2022-10-23T00:12:17;101559.34;;;10.86;94.82
75221;BME280;63802;53.232;6.570;2022-10-23T00:14:43;101551.19;;;10.73;94.80
75221;BME280;63802;53.232;6.570;2022-10-23T00:17:08;101554.53;;;10.67;94.91
75221;BME280;63802;53.232;6.570;2022-10-23T00:19:36;101546.44;;;10.58;94.92
75221;BME280;63802;53.232;6.570;2022-10-23T00:22:01;101561.94;;;10.54;94.97
75221;BME280;63802;53.232;6.570;2022-10-23T00:24:27;101536.94;;;10.40;94.85
75221;BME280;63802;53.232;6.570;2022-10-23T00:26:52;101551.25;;;10.49;95.09
75221;BME280;63802;53.232;6.570;2022-10-23T00:29:17;101556.13;;;10.44;95.32
75221;BME280;63802;53.232;6.570;2022-10-23T00:31:43;101558.78;;;10.40;95.09
75221;BME280;63802;53.232;6.570;2022-10-23T00:34:08;101545.38;;;10.35;95.62
75221;BME280;63802;53.232;6.570;2022-10-23T00:36:36;101553.78;;;10.30;95.27
75221;BME280;63802;53.232;6.570;2022-10-23T00:39:01;101547.44;;;10.26;95.60
75221;BME280;63802;53.232;6.570;2022-10-23T00:41:28;101548.78;;;10.20;95.45
75221;BME280;63802;53.232;6.570;2022-10-23T00:46:34;101553.22;;;10.13;95.69
75221;BME280;63802;53.232;6.570;2022-10-23T00:49:00;101554.69;;;10.10;95.81
75221;BME280;63802;53.232;6.570;2022-10-23T00:51:28;101559.47;;;10.13;95.60
75221;BME280;63802;53.232;6.570;2022-10-23T00:53:57;101553.69;;;10.15;96.05
75221;BME280;63802;53.232;6.570;2022-10-23T00:56:25;101560.25;;;10.14;95.92
75221;BME280;63802;53.232;6.570;2022-10-23T00:58:50;101557.63;;;10.05;95.89
75221;BME280;63802;53.232;6.570;2022-10-23T01:01:18;101557.41;;;9.98;96.12
75221;BME280;63802;53.232;6.570;2022-10-23T01:03:44;101556.84;;;10.04;96.27
75221;BME280;63802;53.232;6.570;2022-10-23T01:17:41;101570.16;;;10.18;96.54
75221;BME280;63802;53.232;6.570;2022-10-23T01:23:34;101557.75;;;10.33;96.82
75221;BME280;63802;53.232;6.570;2022-10-23T01:26:25;101560.59;;;10.36;97.26
75221;BME280;63802;53.232;6.570;2022-10-23T01:29:02;101553.31;;;10.40;96.77
75221;BME280;63802;53.232;6.570;2022-10-23T01:31:57;101551.72;;;10.39;97.16
75221;BME280;63802;53.232;6.570;2022-10-23T01:34:34;101550.25;;;10.42;96.76
75221;BME280;63802;53.232;6.570;2022-10-23T01:37:03;101541.50;;;10.36;97.09
75221;BME280;63802;53.232;6.570;2022-10-23T01:39:34;101559.69;;;10.32;97.09
75221;BME280;63802;53.232;6.570;2022-10-23T01:42:16;101557.19;;;10.27;96.95
75221;BME280;63802;53.232;6.570;2022-10-23T01:44:50;101542.44;;;10.16;96.95
75221;BME280;63802;53.232;6.570;2022-10-23T01:47:21;101556.72;;;10.25;97.18
75221;BME280;63802;53.232;6.570;2022-10-23T01:49:49;101541.84;;;10.23;97.28
75221;BME280;63802;53.232;6.570;2022-10-23T01:52:16;101531.13;;;10.05;97.02
75221;BME280;63802;53.232;6.570;2022-10-23T01:54:43;101545.13;;;10.04;97.21
75221;BME280;63802;53.232;6.570;2022-10-23T01:57:14;101543.28;;;9.96;97.04
75221;BME280;63802;53.232;6.570;2022-10-23T01:59:44;101539.00;;;9.95;96.97
75221;BME280;63802;53.232;6.570;2022-10-23T02:02:12;101530.59;;;9.88;97.16
75221;BME280;63802;53.232;6.570;2022-10-23T02:04:45;101526.47;;;9.82;97.19
75221;BME280;63802;53.232;6.570;2022-10-23T02:07:12;101534.66;;;9.82;97.26
75221;BME280;63802;53.232;6.570;2022-10-23T02:09:37;101537.81;;;9.72;97.32
75221;BME280;63802;53.232;6.570;2022-10-23T02:12:11;101539.63;;;9.68;96.97
75221;BME280;63802;53.232;6.570;2022-10-23T02:14:52;101543.03;;;9.65;97.23
75221;BME280;63802;53.232;6.570;2022-10-23T02:20:35;101519.06;;;9.46;97.01
75221;BME280;63802;53.232;6.570;2022-10-23T02:24:11;101527.22;;;9.46;97.11
75221;BME280;63802;53.232;6.570;2022-10-23T02:26:11;101507.69;;;9.32;97.13
75221;BME280;63802;53.232;6.570;2022-10-23T02:28:48;101515.97;;;9.35;96.88
75221;BME280;63802;53.232;6.570;2022-10-23T02:31:16;101522.41;;;9.31;97.06
75221;BME280;63802;53.232;6.570;2022-10-23T02:33:44;101524.16;;;9.35;97.25
75221;BME280;63802;53.232;6.570;2022-10-23T02:36:11;101516.19;;;9.30;97.18
75221;BME280;63802;53.232;6.570;2022-10-23T02:38:38;101511.41;;;9.27;96.98
75221;BME280;63802;53.232;6.570;2022-10-23T02:46:28;101499.59;;;9.23;97.35
75221;BME280;63802;53.232;6.570;2022-10-23T02:49:18;101505.50;;;9.25;97.04
75221;BME280;63802;53.232;6.570;2022-10-23T02:52:04;101498.44;;;9.12;97.14
75221;BME280;63802;53.232;6.570;2022-10-23T02:57:51;101495.84;;;9.16;97.10
75221;BME280;63802;53.232;6.570;2022-10-23T03:00:20;101490.03;;;9.17;97.33
75221;BME280;63802;53.232;6.570;2022-10-23T03:03:13;101498.00;;;9.22;97.03
75221;BME280;63802;53.232;6.570;2022-10-23T03:05:41;101488.72;;;9.23;97.48
75221;BME280;63802;53.232;6.570;2022-10-23T03:08:10;101488.03;;;9.26;97.29
75221;BME280;63802;53.232;6.570;2022-10-23T03:10:37;101476.69;;;9.24;97.34
75221;BME280;63802;53.232;6.570;2022-10-23T03:13:02;101468.50;;;9.24;97.34
75221;BME280;63802;53.232;6.570;2022-10-23T03:15:28;101479.06;;;9.26;97.45
75221;BME280;63802;53.232;6.570;2022-10-23T03:17:53;101466.78;;;9.20;97.42
75221;BME280;63802;53.232;6.570;2022-10-23T03:20:19;101462.81;;;9.17;97.34
75221;BME280;63802;53.232;6.570;2022-10-23T03:22:44;101472.25;;;9.20;97.49
75221;BME280;63802;53.232;6.570;2022-10-23T03:25:10;101435.06;;;8.91;97.91
75221;BME280;63802;53.232;6.570;2022-10-23T03:27:35;101468.25;;;9.17;97.45
75221;BME280;63802;53.232;6.570;2022-10-23T03:30:03;101470.31;;;9.20;97.82
75221;BME280;63802;53.232;6.570;2022-10-23T03:32:28;101462.16;;;9.20;97.71
75221;BME280;63802;53.232;6.570;2022-10-23T03:34:54;101453.53;;;9.18;97.88
75221;BME280;63802;53.232;6.570;2022-10-23T03:37:19;101474.44;;;9.38;97.50
75221;BME280;63802;53.232;6.570;2022-10-23T03:39:45;101456.97;;;9.39;97.61
75221;BME280;63802;53.232;6.570;2022-10-23T03:42:11;101465.59;;;9.54;97.93
75221;BME280;63802;53.232;6.570;2022-10-23T03:44:36;101466.63;;;9.61;97.74
75221;BME280;63802;53.232;6.570;2022-10-23T03:47:01;101469.00;;;9.63;97.79
75221;BME280;63802;53.232;6.570;2022-10-23T03:49:27;101462.44;;;9.64;97.96
75221;BME280;63802;53.232;6.570;2022-10-23T03:51:53;101457.00;;;9.64;97.71
75221;BME280;63802;53.232;6.570;2022-10-23T03:54:24;101459.25;;;9.62;97.77
75221;BME280;63802;53.232;6.570;2022-10-23T03:56:51;101451.06;;;9.50;97.79
75221;BME280;63802;53.232;6.570;2022-10-23T03:59:16;101443.13;;;9.44;97.68
75221;BME280;63802;53.232;6.570;2022-10-23T04:01:42;101451.63;;;9.43;97.91
75221;BME280;63802;53.232;6.570;2022-10-23T04:04:07;101455.38;;;9.38;98.15
75221;BME280;63802;53.232;6.570;2022-10-23T04:06:33;101454.81;;;9.33;97.85
75221;BME280;63802;53.232;6.570;2022-10-23T04:08:59;101459.00;;;9.30;97.90
75221;BME280;63802;53.232;6.570;2022-10-23T04:11:24;101445.91;;;9.24;97.82
75221;BME280;63802;53.232;6.570;2022-10-23T04:13:50;101441.28;;;9.24;97.67
75221;BME280;63802;53.232;6.570;2022-10-23T04:16:15;101440.59;;;9.27;97.59
75221;BME280;63802;53.232;6.570;2022-10-23T04:18:41;101437.44;;;9.25;98.20
75221;BME280;63802;53.232;6.570;2022-10-23T04:21:06;101427.78;;;9.28;97.90
75221;BME280;63802;53.232;6.570;2022-10-23T04:23:32;101426.53;;;9.25;98.04
75221;BME280;63802;53.232;6.570;2022-10-23T04:25:57;101427.66;;;9.24;97.98
75221;BME280;63802;53.232;6.570;2022-10-23T04:28:23;101426.41;;;9.22;97.92
75221;BME280;63802;53.232;6.570;2022-10-23T04:30:49;101428.91;;;9.27;97.68
75221;BME280;63802;53.232;6.570;2022-10-23T04:33:14;101402.69;;;9.10;98.22
75221;BME280;63802;53.232;6.570;2022-10-23T04:35:39;101415.66;;;9.25;97.80
75221;BME280;63802;53.232;6.570;2022-10-23T04:38:05;101375.34;;;9.07;98.09
75221;BME280;63802;53.232;6.570;2022-10-23T04:40:30;101409.97;;;9.30;98.15
75221;BME280;63802;53.232;6.570;2022-10-23T04:42:56;101417.22;;;9.38;98.03
75221;BME280;63802;53.232;6.570;2022-10-23T04:45:21;101419.19;;;9.38;97.74
75221;BME280;63802;53.232;6.570;2022-10-23T04:47:47;101402.47;;;9.27;97.89
75221;BME280;63802;53.232;6.570;2022-10-23T04:50:12;101418.16;;;9.30;98.05
75221;BME280;63802;53.232;6.570;2022-10-23T04:52:37;101421.09;;;9.25;97.79
75221;BME280;63802;53.232;6.570;2022-10-23T04:55:03;101427.19;;;9.22;98.03
75221;BME280;63802;53.232;6.570;2022-10-23T04:57:29;101427.44;;;9.29;98.00
75221;BME280;63802;53.232;6.570;2022-10-23T04:59:54;101426.53;;;9.25;97.99
75221;BME280;63802;53.232;6.570;2022-10-23T05:02:20;101420.53;;;9.32;97.88
75221;BME280;63802;53.232;6.570;2022-10-23T05:04:45;101410.19;;;9.25;98.10
75221;BME280;63802;53.232;6.570;2022-10-23T05:07:10;101409.53;;;9.28;98.20
75221;BME280;63802;53.232;6.570;2022-10-23T05:09:36;101404.06;;;9.28;97.97
75221;BME280;63802;53.232;6.570;2022-10-23T05:12:01;101410.28;;;9.29;98.04
75221;BME280;63802;53.232;6.570;2022-10-23T05:14:26;101375.44;;;9.10;97.99
75221;BME280;63802;53.232;6.570;2022-10-23T05:17:06;101417.00;;;9.31;97.86
75221;BME280;63802;53.232;6.570;2022-10-23T05:19:38;101413.03;;;9.29;97.99
75221;BME280;63802;53.232;6.570;2022-10-23T05:22:06;101416.78;;;9.36;98.34
75221;BME280;63802;53.232;6.570;2022-10-23T05:24:32;101402.03;;;9.37;98.24
75221;BME280;63802;53.232;6.570;2022-10-23T05:26:58;101404.31;;;9.48;98.23
75221;BME280;63802;53.232;6.570;2022-10-23T05:29:23;101371.50;;;9.32;98.03
75221;BME280;63802;53.232;6.570;2022-10-23T05:31:52;101386.72;;;9.45;97.85
75221;BME280;63802;53.232;6.570;2022-10-23T05:34:21;101385.69;;;9.50;98.55
75221;BME280;63802;53.232;6.570;2022-10-23T05:36:49;101383.19;;;9.57;98.15
75221;BME280;63802;53.232;6.570;2022-10-23T05:39:15;101350.81;;;9.43;98.42
75221;BME280;63802;53.232;6.570;2022-10-23T05:41:40;101351.84;;;9.51;98.20
75221;BME280;63802;53.232;6.570;2022-10-23T05:44:06;101347.78;;;9.44;98.43
75221;BME280;63802;53.232;6.570;2022-10-23T05:46:31;101370.47;;;9.61;98.13
75221;BME280;63802;53.232;6.570;2022-10-23T05:48:57;101366.16;;;9.60;98.33
75221;BME280;63802;53.232;6.570;2022-10-23T05:51:22;101346.41;;;9.51;98.07
75221;BME280;63802;53.232;6.570;2022-10-23T05:53:48;101360.81;;;9.63;98.37
75221;BME280;63802;53.232;6.570;2022-10-23T05:56:14;101358.00;;;9.60;98.34
75221;BME280;63802;53.232;6.570;2022-10-23T05:58:39;101355.28;;;9.60;98.38
75221;BME280;63802;53.232;6.570;2022-10-23T06:01:10;101353.66;;;9.59;98.09
75221;BME280;63802;53.232;6.570;2022-10-23T06:03:37;101356.75;;;9.57;98.41
75221;BME280;63802;53.232;6.570;2022-10-23T06:06:03;101348.00;;;9.52;98.22
75221;BME280;63802;53.232;6.570;2022-10-23T06:08:29;101354.56;;;9.63;98.39
75221;BME280;63802;53.232;6.570;2022-10-23T06:10:55;101347.19;;;9.63;98.16
75221;BME280;63802;53.232;6.570;2022-10-23T06:13:20;101354.47;;;9.59;98.38
75221;BME280;63802;53.232;6.570;2022-10-23T06:15:46;101348.22;;;9.59;98.00
75221;BME280;63802;53.232;6.570;2022-10-23T06:18:12;101352.28;;;9.53;98.19
75221;BME280;63802;53.232;6.570;2022-10-23T06:20:38;101348.56;;;9.57;98.17
75221;BME280;63802;53.232;6.570;2022-10-23T06:23:04;101354.78;;;9.58;98.15
75221;BME280;63802;53.232;6.570;2022-10-23T06:25:30;101348.91;;;9.56;98.48
75221;BME280;63802;53.232;6.570;2022-10-23T06:27:56;101350.94;;;9.59;98.59
75221;BME280;63802;53.232;6.570;2022-10-23T06:30:21;101344.94;;;9.53;98.18
75221;BME280;63802;53.232;6.570;2022-10-23T06:32:47;101331.66;;;9.52;98.17
75221;BME280;63802;53.232;6.570;2022-10-23T06:35:13;101346.75;;;9.61;98.31
75221;BME280;63802;53.232;6.570;2022-10-23T06:37:38;101342.41;;;9.60;98.13
75221;BME280;63802;53.232;6.570;2022-10-23T06:40:04;101345.72;;;9.66;98.18
75221;BME280;63802;53.232;6.570;2022-10-23T06:42:30;101328.69;;;9.57;98.39
75221;BME280;63802;53.232;6.570;2022-10-23T06:44:56;101350.47;;;9.69;98.48
75221;BME280;63802;53.232;6.570;2022-10-23T06:47:21;101348.19;;;9.71;98.23
75221;BME280;63802;53.232;6.570;2022-10-23T06:49:46;101336.84;;;9.69;98.23
75221;BME280;63802;53.232;6.570;2022-10-23T06:52:12;101348.66;;;9.73;98.35
75221;BME280;63802;53.232;6.570;2022-10-23T06:54:37;101344.56;;;9.79;98.24
75221;BME280;63802;53.232;6.570;2022-10-23T06:57:03;101354.31;;;9.80;98.21
75221;BME280;63802;53.232;6.570;2022-10-23T06:59:28;101351.13;;;9.78;98.22
75221;BME280;63802;53.232;6.570;2022-10-23T07:01:54;101337.19;;;9.67;98.60
75221;BME280;63802;53.232;6.570;2022-10-23T07:04:19;101352.94;;;9.86;98.35
75221;BME280;63802;53.232;6.570;2022-10-23T07:06:44;101357.25;;;9.87;98.38
75221;BME280;63802;53.232;6.570;2022-10-23T07:09:10;101335.69;;;9.82;98.13
75221;BME280;63802;53.232;6.570;2022-10-23T07:11:36;101351.13;;;9.90;97.75
75221;BME280;63802;53.232;6.570;2022-10-23T07:14:01;101343.94;;;9.97;98.03
75221;BME280;63802;53.232;6.570;2022-10-23T07:16:27;101350.63;;;10.00;97.97
75221;BME280;63802;53.232;6.570;2022-10-23T07:18:58;101348.13;;;10.07;98.02
75221;BME280;63802;53.232;6.570;2022-10-23T07:21:29;101332.91;;;9.94;98.26
75221;BME280;63802;53.232;6.570;2022-10-23T07:23:56;101356.53;;;10.14;98.05
75221;BME280;63802;53.232;6.570;2022-10-23T07:26:22;101350.03;;;10.19;97.82
75221;BME280;63802;53.232;6.570;2022-10-23T07:28:48;101347.38;;;10.22;97.92
75221;BME280;63802;53.232;6.570;2022-10-23T07:31:20;101334.91;;;10.21;97.61
75221;BME280;63802;53.232;6.570;2022-10-23T07:33:46;101344.16;;;10.32;97.69
75221;BME280;63802;53.232;6.570;2022-10-23T07:36:12;101340.75;;;10.35;97.60
75221;BME280;63802;53.232;6.570;2022-10-23T07:38:37;101336.44;;;10.34;97.72
75221;BME280;63802;53.232;6.570;2022-10-23T07:41:03;101332.75;;;10.42;97.79
75221;BME280;63802;53.232;6.570;2022-10-23T07:43:29;101334.13;;;10.48;98.03
75221;BME280;63802;53.232;6.570;2022-10-23T07:45:54;101336.13;;;10.51;97.71
75221;BME280;63802;53.232;6.570;2022-10-23T07:48:20;101332.00;;;10.57;97.58
75221;BME280;63802;53.232;6.570;2022-10-23T07:50:46;101324.00;;;10.64;97.67
75221;BME280;63802;53.232;6.570;2022-10-23T07:53:16;101313.09;;;10.64;97.36
75221;BME280;63802;53.232;6.570;2022-10-23T07:55:42;101305.44;;;10.70;97.19
75221;BME280;63802;53.232;6.570;2022-10-23T07:58:11;101312.03;;;10.69;97.76
75221;BME280;63802;53.232;6.570;2022-10-23T08:00:38;101318.28;;;10.85;97.17
75221;BME280;63802;53.232;6.570;2022-10-23T08:03:04;101297.34;;;10.73;97.08
75221;BME280;63802;53.232;6.570;2022-10-23T08:05:30;101312.13;;;10.88;97.31
75221;BME280;63802;53.232;6.570;2022-10-23T08:07:58;101307.22;;;10.94;97.12
75221;BME280;63802;53.232;6.570;2022-10-23T08:10:24;101306.22;;;11.02;96.93
75221;BME280;63802;53.232;6.570;2022-10-23T08:12:49;101277.00;;;10.87;96.84
75221;BME280;63802;53.232;6.570;2022-10-23T08:15:21;101290.09;;;11.12;96.72
75221;BME280;63802;53.232;6.570;2022-10-23T08:17:47;101289.56;;;11.22;96.64
75221;BME280;63802;53.232;6.570;2022-10-23T08:20:12;101292.09;;;11.31;96.31
75221;BME280;63802;53.232;6.570;2022-10-23T08:22:39;101280.03;;;11.32;96.42
75221;BME280;63802;53.232;6.570;2022-10-23T08:25:04;101285.44;;;11.48;96.60
75221;BME280;63802;53.232;6.570;2022-10-23T08:27:30;101283.94;;;11.50;96.17
75221;BME280;63802;53.232;6.570;2022-10-23T08:29:55;101284.88;;;11.58;96.16
75221;BME280;63802;53.232;6.570;2022-10-23T08:32:21;101281.25;;;11.69;96.28
75221;BME280;63802;53.232;6.570;2022-10-23T08:34:46;101278.53;;;11.69;95.66
75221;BME280;63802;53.232;6.570;2022-10-23T08:37:12;101280.25;;;11.77;95.97
75221;BME280;63802;53.232;6.570;2022-10-23T08:39:37;101274.09;;;11.80;95.84
75221;BME280;63802;53.232;6.570;2022-10-23T08:42:03;101288.81;;;11.95;95.69
75221;BME280;63802;53.232;6.570;2022-10-23T08:44:40;101278.63;;;11.92;95.43
75221;BME280;63802;53.232;6.570;2022-10-23T08:47:15;101280.69;;;11.98;95.07
75221;BME280;63802;53.232;6.570;2022-10-23T08:52:23;101278.94;;;12.09;94.56
75221;BME280;63802;53.232;6.570;2022-10-23T08:57:42;101263.41;;;12.14;93.71
75221;BME280;63802;53.232;6.570;2022-10-23T09:00:15;101270.72;;;12.29;93.91
75221;BME280;63802;53.232;6.570;2022-10-23T09:02:47;101267.81;;;12.41;93.63
75221;BME280;63802;53.232;6.570;2022-10-23T09:05:20;101273.41;;;12.48;93.54
75221;BME280;63802;53.232;6.570;2022-10-23T09:16:31;101270.63;;;12.90;92.59
75221;BME280;63802;53.232;6.570;2022-10-23T09:19:02;101259.25;;;12.88;92.09
75221;BME280;63802;53.232;6.570;2022-10-23T09:21:28;101264.97;;;13.05;91.91
75221;BME280;63802;53.232;6.570;2022-10-23T09:23:54;101229.84;;;13.07;92.02
75221;BME280;63802;53.232;6.570;2022-10-23T09:26:19;101258.66;;;13.24;91.35
75221;BME280;63802;53.232;6.570;2022-10-23T09:28:51;101259.22;;;13.36;91.18
75221;BME280;63802;53.232;6.570;2022-10-23T09:31:17;101250.72;;;13.45;91.01
75221;BME280;63802;53.232;6.570;2022-10-23T09:34:15;101254.28;;;13.46;90.50
75221;BME280;63802;53.232;6.570;2022-10-23T09:36:49;101246.13;;;13.53;89.87
75221;BME280;63802;53.232;6.570;2022-10-23T09:39:48;101247.66;;;13.50;89.57
75221;BME280;63802;53.232;6.570;2022-10-23T09:42:22;101241.97;;;13.66;90.03
75221;BME280;63802;53.232;6.570;2022-10-23T09:44:50;101236.50;;;13.66;89.58
75221;BME280;63802;53.232;6.570;2022-10-23T09:47:18;101228.09;;;13.85;89.69
75221;BME280;63802;53.232;6.570;2022-10-23T09:49:50;101219.94;;;13.92;88.84
75221;BME280;63802;53.232;6.570;2022-10-23T09:54:54;101210.41;;;13.79;88.66
75221;BME280;63802;53.232;6.570;2022-10-23T09:57:27;101190.09;;;13.87;88.63
75221;BME280;63802;53.232;6.570;2022-10-23T09:59:56;101197.66;;;13.97;88.70
75221;BME280;63802;53.232;6.570;2022-10-23T10:02:30;101176.19;;;14.02;88.36
75221;BME280;63802;53.232;6.570;2022-10-23T10:04:57;101180.25;;;14.16;88.02
75221;BME280;63802;53.232;6.570;2022-10-23T10:07:26;101186.16;;;14.21;87.93
75221;BME280;63802;53.232;6.570;2022-10-23T10:09:53;101190.09;;;14.24;87.93
75221;BME280;63802;53.232;6.570;2022-10-23T10:15:19;101177.31;;;14.35;87.28
75221;BME280;63802;53.232;6.570;2022-10-23T10:18:25;101176.63;;;14.48;87.10
75221;BME280;63802;53.232;6.570;2022-10-23T10:23:46;101167.44;;;14.81;86.51
75221;BME280;63802;53.232;6.570;2022-10-23T10:32:11;101162.91;;;15.06;84.93
75221;BME280;63802;53.232;6.570;2022-10-23T10:34:57;101167.28;;;15.18;84.68
75221;BME280;63802;53.232;6.570;2022-10-23T10:37:37;101161.44;;;15.30;84.55
75221;BME280;63802;53.232;6.570;2022-10-23T10:40:20;101160.69;;;15.33;84.49
75221;BME280;63802;53.232;6.570;2022-10-23T10:43:30;101160.72;;;15.43;84.10
75221;BME280;63802;53.232;6.570;2022-10-23T10:46:11;101143.50;;;15.54;83.75
75221;BME280;63802;53.232;6.570;2022-10-23T10:49:05;101156.84;;;15.55;83.33
75221;BME280;63802;53.232;6.570;2022-10-23T10:51:46;101142.72;;;15.60;83.30
75221;BME280;63802;53.232;6.570;2022-10-23T10:54:22;101126.22;;;15.60;83.09
75221;BME280;63802;53.232;6.570;2022-10-23T10:56:50;101134.06;;;15.55;83.49
75221;BME280;63802;53.232;6.570;2022-10-23T10:59:21;101144.72;;;15.63;83.59
75221;BME280;63802;53.232;6.570;2022-10-23T11:05:20;101133.31;;;15.61;83.83
75221;BME280;63802;53.232;6.570;2022-10-23T11:08:20;101133.31;;;15.68;83.12
75221;BME280;63802;53.232;6.570;2022-10-23T11:10:49;101117.97;;;15.67;83.47
75221;BME280;63802;53.232;6.570;2022-10-23T11:13:37;101125.50;;;15.84;83.13
75221;BME280;63802;53.232;6.570;2022-10-23T11:16:19;101122.34;;;15.89;83.08
75221;BME280;63802;53.232;6.570;2022-10-23T11:24:05;101089.72;;;15.81;82.99
75221;BME280;63802;53.232;6.570;2022-10-23T11:26:47;101082.25;;;15.85;82.57
75221;BME280;63802;53.232;6.570;2022-10-23T11:37:23;101056.28;;;15.82;82.44
75221;BME280;63802;53.232;6.570;2022-10-23T11:48:05;101053.16;;;15.94;81.99
75221;BME280;63802;53.232;6.570;2022-10-23T11:58:53;101007.53;;;15.93;82.81
75221;BME280;63802;53.232;6.570;2022-10-23T12:03:55;100969.81;;;15.90;82.04
75221;BME280;63802;53.232;6.570;2022-10-23T12:06:40;100965.06;;;16.01;81.87
75221;BME280;63802;53.232;6.570;2022-10-23T12:11:48;100950.94;;;15.85;82.36
75221;BME280;63802;53.232;6.570;2022-10-23T12:14:41;100962.72;;;15.75;82.73
75221;BME280;63802;53.232;6.570;2022-10-23T12:19:54;100953.28;;;15.69;82.95
75221;BME280;63802;53.232;6.570;2022-10-23T12:22:25;100954.09;;;15.66;83.22
75221;BME280;63802;53.232;6.570;2022-10-23T12:27:47;100947.81;;;15.76;83.06
75221;BME280;63802;53.232;6.570;2022-10-23T12:30:20;100935.59;;;15.81;82.79
75221;BME280;63802;53.232;6.570;2022-10-23T12:35:55;100914.75;;;15.80;82.66
75221;BME280;63802;53.232;6.570;2022-10-23T12:38:28;100925.78;;;15.76;82.45
75221;BME280;63802;53.232;6.570;2022-10-23T12:41:00;100912.78;;;15.77;83.30
75221;BME280;63802;53.232;6.570;2022-10-23T12:43:31;100913.97;;;15.86;82.60
75221;BME280;63802;53.232;6.570;2022-10-23T12:48:52;100882.50;;;15.87;82.33
75221;BME280;63802;53.232;6.570;2022-10-23T12:51:26;100895.09;;;15.92;82.05
75221;BME280;63802;53.232;6.570;2022-10-23T12:53:53;100903.75;;;15.83;82.29
75221;BME280;63802;53.232;6.570;2022-10-23T12:56:19;100888.03;;;15.87;82.54
75221;BME280;63802;53.232;6.570;2022-10-23T12:59:03;100873.06;;;15.95;82.66
75221;BME280;63802;53.232;6.570;2022-10-23T13:01:31;100878.16;;;15.93;82.14
75221;BME280;63802;53.232;6.570;2022-10-23T13:04:20;100863.63;;;15.96;82.06
75221;BME280;63802;53.232;6.570;2022-10-23T13:06:48;100858.09;;;16.03;82.36
75221;BME280;63802;53.232;6.570;2022-10-23T13:09:22;100856.91;;;16.04;81.96
75221;BME280;63802;53.232;6.570;2022-10-23T13:11:49;100818.84;;;15.85;81.66
75221;BME280;63802;53.232;6.570;2022-10-23T13:14:58;100845.50;;;16.09;81.59
75221;BME280;63802;53.232;6.570;2022-10-23T13:17:38;100837.63;;;16.12;81.80
75221;BME280;63802;53.232;6.570;2022-10-23T13:20:23;100834.47;;;16.06;81.69
75221;BME280;63802;53.232;6.570;2022-10-23T13:23:39;100828.19;;;16.05;81.80
75221;BME280;63802;53.232;6.570;2022-10-23T13:25:40;100813.66;;;16.05;81.40
75221;BME280;63802;53.232;6.570;2022-10-23T13:33:26;100804.19;;;16.09;80.95
75221;BME280;63802;53.232;6.570;2022-10-23T13:38:28;100798.66;;;16.13;81.32
75221;BME280;63802;53.232;6.570;2022-10-23T13:40:55;100791.97;;;16.14;81.49
75221;BME280;63802;53.232;6.570;2022-10-23T13:43:24;100784.91;;;16.09;80.57
75221;BME280;63802;53.232;6.570;2022-10-23T13:45:53;100766.06;;;16.01;80.83
75221;BME280;63802;53.232;6.570;2022-10-23T13:48:19;100772.34;;;16.08;81.04
75221;BME280;63802;53.232;6.570;2022-10-23T13:50:45;100776.69;;;16.02;80.88
75221;BME280;63802;53.232;6.570;2022-10-23T13:53:11;100783.38;;;16.01;80.93
75221;BME280;63802;53.232;6.570;2022-10-23T13:55:38;100774.72;;;16.03;81.12
75221;BME280;63802;53.232;6.570;2022-10-23T13:58:04;100761.34;;;16.01;81.24
75221;BME280;63802;53.232;6.570;2022-10-23T14:00:30;100756.63;;;16.02;81.22
75221;BME280;63802;53.232;6.570;2022-10-23T14:02:56;100752.69;;;16.06;81.22
75221;BME280;63802;53.232;6.570;2022-10-23T14:05:21;100759.06;;;15.93;81.47
75221;BME280;63802;53.232;6.570;2022-10-23T14:07:47;100752.75;;;15.92;81.79
75221;BME280;63802;53.232;6.570;2022-10-23T14:10:12;100741.41;;;15.80;81.84
75221;BME280;63802;53.232;6.570;2022-10-23T14:12:42;100722.19;;;15.62;82.16
75221;BME280;63802;53.232;6.570;2022-10-23T14:15:08;100755.94;;;15.80;82.31
75221;BME280;63802;53.232;6.570;2022-10-23T14:17:35;100730.88;;;15.61;82.31
75221;BME280;63802;53.232;6.570;2022-10-23T14:20:01;100742.59;;;15.75;82.58
75221;BME280;63802;53.232;6.570;2022-10-23T14:22:26;100733.97;;;15.73;82.43
75221;BME280;63802;53.232;6.570;2022-10-23T14:24:52;100735.09;;;15.79;82.45
75221;BME280;63802;53.232;6.570;2022-10-23T14:27:17;100736.28;;;15.82;82.18
75221;BME280;63802;53.232;6.570;2022-10-23T14:29:42;100713.19;;;15.58;82.20
75221;BME280;63802;53.232;6.570;2022-10-23T14:32:08;100742.22;;;15.73;82.79
75221;BME280;63802;53.232;6.570;2022-10-23T14:34:33;100732.41;;;15.69;82.76
75221;BME280;63802;53.232;6.570;2022-10-23T14:36:59;100718.69;;;15.58;82.95
75221;BME280;63802;53.232;6.570;2022-10-23T14:39:24;100722.19;;;15.62;82.93
75221;BME280;63802;53.232;6.570;2022-10-23T14:41:50;100720.63;;;15.68;82.97
75221;BME280;63802;53.232;6.570;2022-10-23T14:44:16;100712.38;;;15.68;82.64
75221;BME280;63802;53.232;6.570;2022-10-23T14:46:41;100699.44;;;15.58;83.04
75221;BME280;63802;53.232;6.570;2022-10-23T14:49:07;100697.06;;;15.60;83.23
75221;BME280;63802;53.232;6.570;2022-10-23T14:51:32;100704.13;;;15.65;83.08
75221;BME280;63802;53.232;6.570;2022-10-23T14:54:03;100701.00;;;15.59;83.04
75221;BME280;63802;53.232;6.570;2022-10-23T14:56:31;100682.16;;;15.54;83.06
75221;BME280;63802;53.232;6.570;2022-10-23T14:58:58;100682.94;;;15.58;83.04
75221;BME280;63802;53.232;6.570;2022-10-23T15:01:41;100675.84;;;15.64;82.98